Arklow Rogue — EIGD — position and weather

sailwx.info

Track history (hours):
 
Tides and Currents Weather Stations Pressure Air Temp Water Temp Dewpoint Dewpoint Depression Visibility Wind Speed Wind Dir Waves Ship Positions

Arklow Rogue

Last reported at 2017-Jan-18 05:33 UTC. Time now 2017-Jan-18 12:03 UTC.
Position N 53°20' W 005°50'.

Length 90 m; draft 3.4 m.

Type: Cargo ship. MMSI: 250000960.

Date/timePositionNaut miles runAvg speedWind from/ knotsBaromVisibWave heightAir tempDewpointWater temp
2017-Jan-18 05:33N 53°20' W 005°50'1412.4
2017-Jan-18 04:28N 53°33' W 005°56'1510.9
2017-Jan-18 03:05N 53°43' W 006°14'1 0.0
2017-Jan-16 02:09N 53°44' W 006°16'8111.5
2017-Jan-15 19:06N 53°35' W 004°00'713.0
2017-Jan-15 18:33N 53°35' W 003°48'1313.3
2017-Jan-15 17:33N 53°33' W 003°26'1212.2
2017-Jan-15 16:33N 53°30' W 003°06'4 4.1
2017-Jan-15 15:32N 53°27' W 003°01'0 0.1
2017-Jan-15 14:34N 53°27' W 003°01'0 0.0
2017-Jan-15 13:31N 53°27' W 003°01'0 0.0
2017-Jan-15 12:34N 53°27' W 003°01'0 0.0
2017-Jan-15 11:34N 53°27' W 003°01'0 0.0
2017-Jan-15 10:31N 53°27' W 003°01'0 0.0
2017-Jan-15 09:31N 53°27' W 003°01'0 0.0
2017-Jan-15 08:34N 53°27' W 003°01'0 0.0
2017-Jan-15 07:34N 53°27' W 003°01'0 0.0
2017-Jan-15 06:28N 53°27' W 003°01'0 0.0
2017-Jan-15 05:31N 53°27' W 003°01'0 0.0
2017-Jan-15 04:34N 53°27' W 003°01'0 0.0
2017-Jan-15 03:34N 53°27' W 003°01'0 0.0
2017-Jan-15 02:34N 53°27' W 003°01'0 0.0
2017-Jan-15 01:34N 53°27' W 003°01'0 0.0
2017-Jan-15 00:34N 53°27' W 003°01'0 0.0
2017-Jan-14 23:28N 53°27' W 003°01'0 0.0
2017-Jan-14 22:34N 53°27' W 003°01'0 0.0
2017-Jan-14 21:34N 53°27' W 003°01'0 0.0
2017-Jan-14 20:34N 53°27' W 003°01'0 0.0
2017-Jan-14 19:31N 53°27' W 003°01'0 0.0
2017-Jan-14 18:34N 53°27' W 003°01'0 0.0
2017-Jan-14 17:34N 53°27' W 003°01'0 0.0
2017-Jan-14 16:34N 53°27' W 003°01'0 0.4
2017-Jan-14 15:29N 53°27' W 003°00'0 0.0
2017-Jan-14 14:32N 53°27' W 003°00'0 0.0
2017-Jan-14 13:29N 53°27' W 003°00'0 0.0
2017-Jan-14 12:29N 53°27' W 003°00'0 0.0
2017-Jan-14 11:32N 53°27' W 003°00'0 0.0
2017-Jan-14 10:32N 53°27' W 003°00'0 0.0
2017-Jan-14 09:32N 53°27' W 003°00'0 0.0
2017-Jan-14 08:29N 53°27' W 003°00'0 0.0
2017-Jan-14 07:32N 53°27' W 003°00'0 0.0
2017-Jan-14 06:29N 53°27' W 003°00'0 0.0
2017-Jan-14 05:29N 53°27' W 003°00'0 0.0
2017-Jan-14 04:32N 53°27' W 003°00'0 0.0
2017-Jan-14 03:32N 53°27' W 003°00'0 0.0
2017-Jan-13 23:29N 53°27' W 003°00'0 0.0
2017-Jan-13 22:33N 53°27' W 003°00'0 0.4
2017-Jan-13 21:33N 53°27' W 003°01'0 0.2
2017-Jan-13 20:33N 53°27' W 003°01'1 1.2
2017-Jan-13 19:33N 53°27' W 003°03'8 8.1
2017-Jan-13 18:33N 53°31' W 003°15'8 8.1
2017-Jan-13 17:33N 53°33' W 003°28'1010.5
2017-Jan-13 16:34N 53°40' W 003°41'1010.3
2017-Jan-13 15:33N 53°48' W 003°52'28 2.1
2017-Jan-13 02:13N 54°04' W 004°31'4210.1
2017-Jan-12 22:06N 54°00' W 005°42'712.2
2017-Jan-12 21:31N 54°00' W 005°54'  
2017-Jan-09 21:34N 54°00' W 006°03'1611.6
2017-Jan-09 20:13N 53°45' W 006°09'  
Track history (hours):
 
Tides and Currents Weather Stations Pressure Air Temp Water Temp Dewpoint Dewpoint Depression Visibility Wind Speed Wind Dir Waves Ship Positions

Arklow Rogue

Last reported at 2017-Jan-18 05:33 UTC. Time now 2017-Jan-18 12:03 UTC.
Position N 53°20' W 005°50'.

Length 90 m; draft 3.4 m.

Type: Cargo ship. MMSI: 250000960.

Date/timePositionNaut miles runAvg speedWind from/ knotsBaromVisibWave heightAir tempDewpointWater temp
2017-Jan-18 05:33N 53°20' W 005°50'1412.4
2017-Jan-18 04:28N 53°33' W 005°56'1510.9
2017-Jan-18 03:05N 53°43' W 006°14'1 0.0
2017-Jan-16 02:09N 53°44' W 006°16'8111.5
2017-Jan-15 19:06N 53°35' W 004°00'713.0
2017-Jan-15 18:33N 53°35' W 003°48'1313.3
2017-Jan-15 17:33N 53°33' W 003°26'1212.2
2017-Jan-15 16:33N 53°30' W 003°06'4 4.1
2017-Jan-15 15:32N 53°27' W 003°01'0 0.1
2017-Jan-15 14:34N 53°27' W 003°01'0 0.0
2017-Jan-15 13:31N 53°27' W 003°01'0 0.0
2017-Jan-15 12:34N 53°27' W 003°01'0 0.0
2017-Jan-15 11:34N 53°27' W 003°01'0 0.0
2017-Jan-15 10:31N 53°27' W 003°01'0 0.0
2017-Jan-15 09:31N 53°27' W 003°01'0 0.0
2017-Jan-15 08:34N 53°27' W 003°01'0 0.0
2017-Jan-15 07:34N 53°27' W 003°01'0 0.0
2017-Jan-15 06:28N 53°27' W 003°01'0 0.0
2017-Jan-15 05:31N 53°27' W 003°01'0 0.0
2017-Jan-15 04:34N 53°27' W 003°01'0 0.0
2017-Jan-15 03:34N 53°27' W 003°01'0 0.0
2017-Jan-15 02:34N 53°27' W 003°01'0 0.0
2017-Jan-15 01:34N 53°27' W 003°01'0 0.0
2017-Jan-15 00:34N 53°27' W 003°01'0 0.0
2017-Jan-14 23:28N 53°27' W 003°01'0 0.0
2017-Jan-14 22:34N 53°27' W 003°01'0 0.0
2017-Jan-14 21:34N 53°27' W 003°01'0 0.0
2017-Jan-14 20:34N 53°27' W 003°01'0 0.0
2017-Jan-14 19:31N 53°27' W 003°01'0 0.0
2017-Jan-14 18:34N 53°27' W 003°01'0 0.0
2017-Jan-14 17:34N 53°27' W 003°01'0 0.0
2017-Jan-14 16:34N 53°27' W 003°01'0 0.4
2017-Jan-14 15:29N 53°27' W 003°00'0 0.0
2017-Jan-14 14:32N 53°27' W 003°00'0 0.0
2017-Jan-14 13:29N 53°27' W 003°00'0 0.0
2017-Jan-14 12:29N 53°27' W 003°00'0 0.0
2017-Jan-14 11:32N 53°27' W 003°00'0 0.0
2017-Jan-14 10:32N 53°27' W 003°00'0 0.0
2017-Jan-14 09:32N 53°27' W 003°00'0 0.0
2017-Jan-14 08:29N 53°27' W 003°00'0 0.0
2017-Jan-14 07:32N 53°27' W 003°00'0 0.0
2017-Jan-14 06:29N 53°27' W 003°00'0 0.0
2017-Jan-14 05:29N 53°27' W 003°00'0 0.0
2017-Jan-14 04:32N 53°27' W 003°00'0 0.0
2017-Jan-14 03:32N 53°27' W 003°00'0 0.0
2017-Jan-13 23:29N 53°27' W 003°00'0 0.0
2017-Jan-13 22:33N 53°27' W 003°00'0 0.4
2017-Jan-13 21:33N 53°27' W 003°01'0 0.2
2017-Jan-13 20:33N 53°27' W 003°01'1 1.2
2017-Jan-13 19:33N 53°27' W 003°03'8 8.1
2017-Jan-13 18:33N 53°31' W 003°15'8 8.1
2017-Jan-13 17:33N 53°33' W 003°28'1010.5
2017-Jan-13 16:34N 53°40' W 003°41'1010.3
2017-Jan-13 15:33N 53°48' W 003°52'28 2.1
2017-Jan-13 02:13N 54°04' W 004°31'4210.1
2017-Jan-12 22:06N 54°00' W 005°42'712.2
2017-Jan-12 21:31N 54°00' W 005°54'  
2017-Jan-09 21:34N 54°00' W 006°03'1611.6
2017-Jan-09 20:13N 53°45' W 006°09'  

Dump ship's entire track history